Time;durP1;ratioP1;P1;durP2;ratioP2;P2;SDS_P1;SDS_P2;PMS_P1;PMS_P2;Temp;Humidity;BMP_temperature;BMP_pressure;BME280_temperature;BME280_humidity;BME280_pressure;Samples;Min_cycle;Max_cycle;Signal;HPM_P1;HPM_P2
2020/12/23 00:01:41;;;;;;;154.20;66.63;;;;;;;4.40;100.00;95429.13;10536983;28;20036;-74
2020/12/23 00:06:42;;;;;;;152.27;63.40;;;;;;;4.24;100.00;95419.84;10537181;28;20028;-74
2020/12/23 00:11:42;;;;;;;164.02;69.78;;;;;;;3.88;100.00;95418.66;10537070;28;20028;-74
2020/12/23 00:16:43;;;;;;;164.73;70.30;;;;;;;3.93;100.00;95423.31;10536432;28;20044;-74
2020/12/23 00:21:43;;;;;;;174.25;75.88;;;;;;;3.95;100.00;95437.25;10518483;28;20032;-74
2020/12/23 00:26:44;;;;;;;182.65;77.65;;;;;;;4.06;100.00;95433.06;10536282;28;20047;-74
2020/12/23 00:31:45;;;;;;;166.25;73.45;;;;;;;4.03;100.00;95423.69;10535969;28;20066;-75
2020/12/23 00:36:56;;;;;;;179.70;77.38;;;;;;;4.07;100.00;95429.38;10535644;28;20139;-75
2020/12/23 00:41:57;;;;;;;180.25;76.28;;;;;;;4.16;100.00;95436.06;10535310;28;20048;-75
2020/12/23 00:46:57;;;;;;;173.73;72.27;;;;;;;4.34;100.00;95445.16;10535821;28;20035;-75
2020/12/23 00:51:57;;;;;;;189.13;74.03;;;;;;;4.48;100.00;95416.59;10535459;28;20365;-75
2020/12/23 00:56:58;;;;;;;158.87;73.03;;;;;;;4.52;100.00;95420.44;10534497;28;20294;-75
2020/12/23 01:01:59;;;;;;;181.82;73.60;;;;;;;4.50;100.00;95423.31;10534838;28;20317;-75
2020/12/23 01:06:59;;;;;;;184.43;77.65;;;;;;;4.52;100.00;95420.44;10534010;28;20158;-75
2020/12/23 01:12:00;;;;;;;177.13;73.87;;;;;;;4.56;100.00;95406.50;10516371;28;20032;-75
2020/12/23 01:17:00;;;;;;;178.18;70.55;;;;;;;4.61;100.00;95398.66;10533750;28;20306;-75
2020/12/23 01:22:01;;;;;;;168.93;75.95;;;;;;;4.45;100.00;95416.00;10533609;28;20035;-75
2020/12/23 01:27:01;;;;;;;175.90;73.63;;;;;;;4.28;100.00;95415.72;10534052;28;20083;-75
2020/12/23 01:32:01;;;;;;;170.53;71.90;;;;;;;4.38;100.00;95417.06;10533323;28;20513;-75
2020/12/23 01:37:02;;;;;;;161.13;74.97;;;;;;;4.20;100.00;95401.84;10532959;28;20298;-75
2020/12/23 01:42:03;;;;;;;166.77;70.93;;;;;;;4.23;100.00;95402.25;10515266;28;20043;-75
2020/12/23 01:47:11;;;;;;;157.23;67.63;;;;;;;4.04;100.00;95392.56;10532409;28;20454;-75
2020/12/23 01:52:11;;;;;;;165.75;69.80;;;;;;;4.00;100.00;95386.06;10533153;28;20028;-75
2020/12/23 01:57:12;;;;;;;159.55;69.20;;;;;;;4.12;100.00;95381.69;10532405;28;20032;-75
2020/12/23 02:02:28;;;;;;;178.35;67.63;;;;;;;4.19;100.00;95373.66;10532640;28;20039;-75
2020/12/23 02:07:29;;;;;;;153.73;62.72;;;;;;;4.20;100.00;95357.47;10531757;28;20028;-75
2020/12/23 02:12:29;;;;;;;163.70;66.15;;;;;;;4.17;100.00;95360.56;10532184;28;20506;-75
2020/12/23 02:17:29;;;;;;;144.10;61.17;;;;;;;4.28;100.00;95359.84;10530480;28;20048;-75
2020/12/23 02:22:30;;;;;;;125.50;52.37;;;;;;;4.38;100.00;95371.84;10531375;28;20066;-75
2020/12/23 02:27:31;;;;;;;131.70;52.38;;;;;;;4.45;100.00;95370.75;10531891;28;20032;-75
2020/12/23 02:32:31;;;;;;;129.10;52.38;;;;;;;4.40;100.00;95365.25;10531310;28;20036;-75
2020/12/23 02:37:32;;;;;;;126.00;49.92;;;;;;;4.49;100.00;95357.00;10530615;28;20036;-75
2020/12/23 02:42:32;;;;;;;116.17;49.70;;;;;;;4.47;100.00;95365.22;10512760;28;20038;-75
2020/12/23 02:47:33;;;;;;;115.93;44.95;;;;;;;4.47;100.00;95349.25;10530297;28;20285;-75
2020/12/23 02:52:33;;;;;;;119.77;46.70;;;;;;;4.43;100.00;95340.06;10530300;28;20111;-75
2020/12/23 02:57:34;;;;;;;115.30;45.05;;;;;;;4.33;100.00;95345.88;10530860;28;20294;-75
2020/12/23 03:02:34;;;;;;;118.03;44.63;;;;;;;4.33;100.00;95356.53;10530254;28;20032;-75
2020/12/23 03:07:34;;;;;;;102.17;39.33;;;;;;;4.46;100.00;95344.94;10529874;28;20281;-75
2020/12/23 03:12:35;;;;;;;107.43;41.25;;;;;;;4.36;100.00;95352.63;10530080;28;20028;-75
2020/12/23 03:17:36;;;;;;;106.03;39.53;;;;;;;4.37;100.00;95348.94;10529717;28;20054;-75
2020/12/23 03:22:36;;;;;;;103.28;39.88;;;;;;;4.34;100.00;95354.66;10529459;28;20032;-75
2020/12/23 03:27:38;;;;;;;94.20;41.00;;;;;;;4.38;100.00;95366.50;10529855;28;20028;-75
2020/12/23 03:32:38;;;;;;;98.78;41.83;;;;;;;4.31;100.00;95363.09;10529272;28;20569;-75
2020/12/23 03:37:39;;;;;;;109.75;42.20;;;;;;;4.30;100.00;95366.78;10529341;28;20111;-75
2020/12/23 03:42:39;;;;;;;105.27;40.87;;;;;;;4.18;100.00;95370.16;10529566;28;20494;-75
2020/12/23 03:47:40;;;;;;;112.13;44.25;;;;;;;4.18;100.00;95382.66;10529390;28;20040;-75
2020/12/23 03:52:40;;;;;;;97.00;42.53;;;;;;;4.33;100.00;95371.69;10528712;28;20046;-75
2020/12/23 03:57:41;;;;;;;95.03;40.27;;;;;;;4.39;100.00;95381.44;10528782;28;20028;-75
2020/12/23 04:02:41;;;;;;;104.00;40.95;;;;;;;4.39;100.00;95376.94;10529092;28;20036;-75
2020/12/23 04:07:41;;;;;;;101.18;38.88;;;;;;;4.50;100.00;95375.41;10528376;28;20032;-75
2020/12/23 04:12:42;;;;;;;84.95;36.50;;;;;;;4.54;100.00;95371.28;10528633;28;20372;-75
2020/12/23 04:17:42;;;;;;;92.72;38.70;;;;;;;4.54;100.00;95362.50;10510901;28;20043;-75
2020/12/23 04:22:43;;;;;;;90.15;35.03;;;;;;;4.62;100.00;95368.34;10528639;28;20083;-75
2020/12/23 04:27:43;;;;;;;81.25;36.03;;;;;;;4.55;100.00;95367.59;10528296;28;20035;-76
2020/12/23 04:32:44;;;;;;;85.03;35.53;;;;;;;4.60;100.00;95366.94;10528626;28;20119;-76
2020/12/23 04:37:44;;;;;;;77.77;31.67;;;;;;;4.61;100.00;95379.22;10510145;28;20043;-75
2020/12/23 04:42:45;;;;;;;81.55;32.75;;;;;;;4.50;100.00;95387.91;10532206;28;20772;-75
2020/12/23 04:47:47;;;;;;;75.80;32.40;;;;;;;4.65;100.00;95390.22;10535582;28;20020;-75
2020/12/23 04:52:47;;;;;;;79.95;32.42;;;;;;;4.69;100.00;95388.75;10535441;28;20390;-75
2020/12/23 04:57:54;;;;;;;80.78;33.95;;;;;;;4.65;100.00;95367.09;10534682;28;20028;-72
2020/12/23 05:02:55;;;;;;;70.18;30.00;;;;;;;4.76;100.00;95365.56;10535299;28;20106;-72
2020/12/23 05:07:55;;;;;;;72.88;30.55;;;;;;;4.68;100.00;95376.50;10534692;28;20843;-72
2020/12/23 05:12:56;;;;;;;82.88;31.92;;;;;;;4.74;100.00;95381.72;10533705;28;20032;-72
2020/12/23 05:18:01;;;;;;;79.90;30.98;;;;;;;4.74;100.00;95381.72;10533775;28;20097;-72
2020/12/23 05:23:02;;;;;;;79.22;29.77;;;;;;;4.89;100.00;95372.59;10515660;28;20058;-72
2020/12/23 05:28:03;;;;;;;83.13;31.60;;;;;;;4.82;100.00;95372.66;10512380;28;20487;-72
2020/12/23 05:33:05;;;;;;;69.05;30.90;;;;;;;4.57;100.00;95381.47;10533707;28;20518;-73
2020/12/23 05:38:05;;;;;;;77.50;32.00;;;;;;;4.70;100.00;95377.06;10532548;28;20478;-73
2020/12/23 05:43:06;;;;;;;74.38;30.13;;;;;;;4.77;100.00;95391.97;10533197;28;20112;-73
2020/12/23 05:48:14;;;;;;;74.53;31.13;;;;;;;4.83;100.00;95382.28;10533018;28;20184;-72
2020/12/23 05:53:15;;;;;;;72.65;31.67;;;;;;;4.86;100.00;95397.00;10532030;28;20040;-72
2020/12/23 05:58:32;;;;;;;73.63;30.35;;;;;;;5.00;100.00;95397.69;10532524;28;20032;-72
2020/12/23 06:03:35;;;;;;;77.45;30.95;;;;;;;5.06;100.00;95391.44;10531949;28;20063;-72
2020/12/23 06:08:37;;;;;;;78.78;31.75;;;;;;;4.99;100.00;95402.16;10498016;28;20119;-72
2020/12/23 06:13:56;;;;;;;65.85;29.88;;;;;;;5.03;100.00;95411.34;10513063;28;20034;-72
2020/12/23 06:18:59;;;;;;;77.63;34.10;;;;;;;5.14;100.00;95413.28;10513016;28;20043;-72
2020/12/23 06:24:13;;;;;;;80.00;33.17;;;;;;;5.18;100.00;95416.31;10512018;28;20063;-72
2020/12/23 06:29:18;;;;;;;76.55;31.48;;;;;;;5.12;100.00;95417.19;10530659;28;20036;-73
2020/12/23 06:34:26;;;;;;;76.32;31.45;;;;;;;5.22;100.00;95422.84;10531551;28;20043;-72
2020/12/23 06:39:31;;;;;;;74.30;30.17;;;;;;;5.26;100.00;95424.03;10530776;28;20036;-73
2020/12/23 06:44:44;;;;;;;68.03;27.98;;;;;;;5.25;100.00;95426.91;10529851;28;20038;-73
2020/12/23 06:49:57;;;;;;;75.60;30.88;;;;;;;5.31;100.00;95426.00;10530525;28;20032;-74
2020/12/23 06:55:05;;;;;;;81.28;30.52;;;;;;;5.36;100.00;95422.66;10512277;28;20186;-73
2020/12/23 07:00:06;;;;;;;80.88;31.90;;;;;;;5.46;100.00;95429.09;10530237;28;20036;-74
2020/12/23 07:05:07;;;;;;;80.43;31.25;;;;;;;5.64;100.00;95443.47;10510952;28;20050;-73
2020/12/23 07:10:15;;;;;;;69.57;30.60;;;;;;;5.69;100.00;95458.78;10525916;28;20052;-73
2020/12/23 07:15:22;;;;;;;77.40;30.03;;;;;;;5.77;100.00;95456.63;10525159;28;20032;-74
2020/12/23 07:20:24;;;;;;;71.70;30.25;;;;;;;5.80;100.00;95460.69;10517539;28;20032;-73
2020/12/23 07:25:27;;;;;;;66.28;28.08;;;;;;;5.73;100.00;95452.78;10507482;28;20044;-73
2020/12/23 07:30:27;;;;;;;68.63;29.67;;;;;;;5.49;100.00;95454.50;10525386;28;20031;-73
2020/12/23 07:35:28;;;;;;;70.00;30.23;;;;;;;5.58;100.00;95455.84;10492969;28;20043;-74
2020/12/23 07:40:29;;;;;;;77.68;29.77;;;;;;;5.51;100.00;95457.75;10517796;28;20676;-73
2020/12/23 07:45:31;;;;;;;71.60;30.95;;;;;;;5.43;100.00;95452.75;10528251;28;20039;-74
2020/12/23 07:50:34;;;;;;;78.35;28.60;;;;;;;5.63;100.00;95450.63;10526019;28;20028;-74
2020/12/23 07:55:34;;;;;;;65.93;27.15;;;;;;;5.74;100.00;95448.28;10521313;28;20150;-73
2020/12/23 08:00:39;;;;;;;82.27;30.10;;;;;;;5.89;100.00;95454.03;10504544;28;20032;-73
2020/12/23 08:05:40;;;;;;;75.07;29.70;;;;;;;6.19;100.00;95458.56;10524387;28;20138;-73
2020/12/23 08:10:41;;;;;;;64.03;28.98;;;;;;;6.52;100.00;95461.78;10528467;28;20043;-73
2020/12/23 08:15:41;;;;;;;79.53;30.60;;;;;;;6.79;100.00;95462.16;10495410;28;20066;-74
2020/12/23 08:20:42;;;;;;;67.00;29.52;;;;;;;6.99;100.00;95459.97;10494415;28;20106;-73
2020/12/23 08:25:42;;;;;;;62.47;27.98;;;;;;;7.26;100.00;95464.84;10493435;28;20043;-73
2020/12/23 08:30:43;;;;;;;71.32;30.27;;;;;;;7.40;100.00;95465.41;10493911;28;20480;-73
2020/12/23 08:35:45;;;;;;;85.65;31.70;;;;;;;7.52;100.00;95457.34;10525985;28;20056;-73
2020/12/23 08:40:50;;;;;;;85.50;32.90;;;;;;;7.77;100.00;95458.94;10534874;28;20115;-73
2020/12/23 08:45:53;;;;;;;73.68;30.73;;;;;;;7.83;100.00;95452.66;10535292;28;20028;-73
2020/12/23 08:51:02;;;;;;;63.83;28.70;;;;;;;8.28;100.00;95443.84;10535070;28;20411;-73
2020/12/23 08:56:33;;;;;;;80.57;32.50;;;;;;;9.05;100.00;95429.00;10502555;28;20444;-73
2020/12/23 09:01:35;;;;;;;85.68;34.72;;;;;;;9.69;100.00;95408.91;10492200;28;20119;-73
2020/12/23 09:06:43;;;;;;;80.00;36.10;;;;;;;10.74;100.00;95407.81;10491804;28;20410;-73
2020/12/23 09:11:54;;;;;;;74.05;32.58;;;;;;;11.61;100.00;95393.25;10474306;28;20036;-73
2020/12/23 09:16:56;;;;;;;66.13;31.52;;;;;;;11.67;100.00;95380.63;10491726;28;20051;-72
2020/12/23 09:21:57;;;;;;;75.05;32.72;;;;;;;11.98;100.00;95378.84;10492161;28;20098;-73
2020/12/23 09:26:57;;;;;;;76.13;33.37;;;;;;;11.86;100.00;95381.75;10490460;28;20120;-73
2020/12/23 09:31:58;;;;;;;65.75;32.05;;;;;;;12.12;100.00;95377.25;10491512;28;20051;-73
2020/12/23 09:36:58;;;;;;;79.17;32.57;;;;;;;12.01;99.41;95370.22;10490873;28;20138;-72
2020/12/23 09:42:06;;;;;;;76.83;33.90;;;;;;;12.12;100.00;95368.38;10490310;28;20286;-73
2020/12/23 09:47:06;;;;;;;;;;;;;;;12.07;98.70;95371.03;10490805;28;20024;-73
2020/12/23 09:52:07;;;;;;;76.40;31.77;;;;;;;11.87;100.00;95361.81;10490310;28;20722;-73
2020/12/23 09:57:08;;;;;;;72.37;32.00;;;;;;;11.90;100.00;95352.38;10489954;28;20033;-74
2020/12/23 10:02:09;;;;;;;67.45;29.98;;;;;;;12.81;91.53;95342.75;10472179;28;20399;-73
2020/12/23 10:07:10;;;;;;;69.33;29.17;;;;;;;13.82;91.76;95335.69;10489679;28;20028;-73
2020/12/23 10:12:10;;;;;;;66.05;27.40;;;;;;;15.68;75.65;95318.59;10489196;28;20290;-73
2020/12/23 10:17:11;;;;;;;30.35;6.78;;;;;;;17.19;59.68;95316.81;10488901;28;20044;-73
2020/12/23 10:22:11;;;;;;;9.50;3.38;;;;;;;17.35;57.24;95308.38;10471154;28;20040;-72
2020/12/23 10:27:13;;;;;;;9.10;3.47;;;;;;;17.00;58.94;95297.09;10488697;28;20035;-72
2020/12/23 10:32:13;;;;;;;23.50;5.93;;;;;;;16.73;60.28;95298.59;10488949;28;20037;-73
2020/12/23 10:37:15;;;;;;;14.32;4.03;;;;;;;15.66;63.68;95289.09;10488184;28;20028;-73
2020/12/23 10:42:16;;;;;;;18.25;3.25;;;;;;;15.26;67.90;95285.78;10487419;28;20037;-73
2020/12/23 10:47:16;;;;;;;10.52;3.55;;;;;;;14.44;75.66;95284.72;10470360;28;20044;-72
2020/12/23 10:52:18;;;;;;;17.52;3.13;;;;;;;13.78;79.91;95284.09;10488191;28;20499;-72
2020/12/23 10:57:19;;;;;;;8.18;3.55;;;;;;;13.31;85.38;95280.00;10487462;28;20041;-72
2020/12/23 11:02:19;;;;;;;14.00;4.33;;;;;;;13.13;87.54;95276.84;10488876;28;20036;-72
2020/12/23 11:07:20;;;;;;;7.75;3.47;;;;;;;12.96;88.82;95279.88;10501974;28;20300;-72
2020/12/23 11:12:20;;;;;;;8.60;4.53;;;;;;;12.58;93.80;95292.09;10509100;28;20063;-73
2020/12/23 11:17:21;;;;;;;22.57;4.93;;;;;;;12.31;96.90;95285.91;10513142;28;20039;-73
2020/12/23 11:22:21;;;;;;;7.93;3.28;;;;;;;12.33;96.01;95276.75;10497508;28;20029;-74
2020/12/23 11:27:22;;;;;;;12.00;3.50;;;;;;;11.91;100.00;95267.81;10506976;28;20458;-73
2020/12/23 11:32:22;;;;;;;4.53;2.70;;;;;;;11.87;100.00;95269.44;10487191;28;20377;-73
2020/12/23 11:37:23;;;;;;;3.90;2.70;;;;;;;12.39;100.00;95263.00;10494890;28;20044;-73
2020/12/23 11:42:24;;;;;;;14.52;3.28;;;;;;;16.17;71.48;95241.50;10492015;28;20054;-73
2020/12/23 11:47:24;;;;;;;8.45;2.60;;;;;;;19.58;50.16;95248.28;10528840;28;20035;-73
2020/12/23 11:52:25;;;;;;;4.40;1.53;;;;;;;21.33;42.46;95232.44;10532433;28;20028;-73
2020/12/23 11:57:25;;;;;;;6.83;2.17;;;;;;;21.92;41.16;95219.91;10513804;28;20295;-73
2020/12/23 12:02:26;;;;;;;11.20;3.20;;;;;;;20.51;43.43;95223.56;10521724;28;20293;-72
2020/12/23 12:07:26;;;;;;;4.40;2.53;;;;;;;17.48;52.07;95226.00;10536081;28;20399;-73
2020/12/23 12:12:27;;;;;;;11.27;3.15;;;;;;;16.19;60.61;95220.28;10532346;28;20300;-73
2020/12/23 12:17:27;;;;;;;8.30;3.88;;;;;;;15.52;65.72;95215.84;10532466;28;20094;-73
2020/12/23 12:22:28;;;;;;;8.40;3.38;;;;;;;14.66;75.39;95213.91;10535846;28;20051;-72
2020/12/23 12:27:28;;;;;;;7.47;2.28;;;;;;;14.21;78.73;95228.69;10508083;28;20036;-73
2020/12/23 12:32:29;;;;;;;8.82;3.10;;;;;;;13.85;82.58;95222.47;10493018;28;20510;-73
2020/12/23 12:37:29;;;;;;;4.45;2.13;;;;;;;12.97;87.04;95218.63;10492811;28;20047;-73
2020/12/23 12:42:30;;;;;;;6.53;2.70;;;;;;;12.89;88.70;95213.81;10474945;28;20035;-73
2020/12/23 12:47:30;;;;;;;6.07;3.13;;;;;;;12.69;91.19;95212.78;10515057;28;20035;-73
2020/12/23 12:52:31;;;;;;;10.30;3.42;;;;;;;12.58;94.28;95217.41;10534672;28;20035;-73
2020/12/23 12:57:31;;;;;;;8.32;2.60;;;;;;;12.61;93.58;95230.34;10534353;28;20051;-73
2020/12/23 13:02:32;;;;;;;11.15;3.53;;;;;;;12.52;96.12;95233.88;10532895;28;20111;-73
2020/12/23 13:07:32;;;;;;;6.73;3.17;;;;;;;12.74;93.88;95233.53;10533983;28;20413;-73
2020/12/23 13:12:33;;;;;;;6.88;2.92;;;;;;;12.87;91.65;95237.56;10533644;28;20403;-73
2020/12/23 13:17:33;;;;;;;3.50;2.45;;;;;;;12.88;92.34;95226.50;10532996;28;20051;-73
2020/12/23 13:22:34;;;;;;;4.30;2.17;;;;;;;12.77;93.65;95219.53;10515018;28;20392;-73
2020/12/23 13:27:35;;;;;;;7.45;3.17;;;;;;;12.71;92.33;95234.91;10532243;28;20286;-73
2020/12/23 13:32:36;;;;;;;5.25;2.38;;;;;;;12.43;93.87;95225.53;10532876;28;20396;-73
2020/12/23 13:37:37;;;;;;;5.68;2.22;;;;;;;12.39;97.01;95224.44;10533096;28;20146;-73
2020/12/23 13:42:37;;;;;;;3.67;2.60;;;;;;;12.55;94.90;95222.53;10532991;28;20043;-73
2020/12/23 13:47:38;;;;;;;7.63;3.10;;;;;;;12.28;95.99;95207.50;10532648;28;20165;-73
2020/12/23 13:52:38;;;;;;;7.97;2.90;;;;;;;12.01;99.47;95211.28;10531768;28;20032;-73
2020/12/23 13:57:39;;;;;;;6.95;3.25;;;;;;;11.67;100.00;95205.63;10532145;28;20796;-73
2020/12/23 14:02:40;;;;;;;4.40;2.80;;;;;;;11.49;100.00;95210.41;10531710;28;20113;-73
2020/12/23 14:07:40;;;;;;;5.40;2.58;;;;;;;11.35;100.00;95207.44;10531324;28;20024;-73
2020/12/23 14:12:41;;;;;;;5.43;2.63;;;;;;;11.06;100.00;95213.28;10531574;28;20070;-73
2020/12/23 14:17:41;;;;;;;17.35;3.08;;;;;;;10.80;100.00;95216.94;10530964;28;20491;-73
2020/12/23 14:22:42;;;;;;;6.57;3.28;;;;;;;10.62;100.00;95210.13;10530879;28;20047;-73
2020/12/23 14:27:43;;;;;;;10.18;3.22;;;;;;;10.58;100.00;95220.63;10515133;28;20496;-73
2020/12/23 14:32:44;;;;;;;7.78;2.67;;;;;;;10.60;100.00;95213.09;10506002;28;20039;-73
2020/12/23 14:37:44;;;;;;;9.35;3.67;;;;;;;10.61;100.00;95214.72;10523862;28;20034;-73
2020/12/23 14:42:45;;;;;;;14.52;5.10;;;;;;;10.66;100.00;95214.75;10527182;28;20035;-73
2020/12/23 14:47:45;;;;;;;11.82;4.45;;;;;;;10.59;100.00;95219.53;10524795;28;20024;-73
2020/12/23 14:52:46;;;;;;;8.77;3.00;;;;;;;10.61;100.00;95212.03;10528566;28;20047;-72
2020/12/23 14:57:46;;;;;;;12.40;3.38;;;;;;;10.42;100.00;95215.16;10508743;28;20028;-73
2020/12/23 15:02:47;;;;;;;6.60;2.90;;;;;;;10.29;100.00;95204.84;10499350;28;20123;-72
2020/12/23 15:07:47;;;;;;;4.03;2.20;;;;;;;10.14;100.00;95207.41;10513378;28;20028;-73
2020/12/23 15:12:49;;;;;;;6.45;2.45;;;;;;;10.08;100.00;95207.38;10529004;28;20028;-73
2020/12/23 15:17:49;;;;;;;10.57;4.03;;;;;;;9.96;100.00;95204.06;10487394;28;20040;-75
2020/12/23 15:22:49;;;;;;;25.25;7.88;;;;;;;9.88;100.00;95207.25;10506409;28;20039;-73
2020/12/23 15:27:50;;;;;;;13.43;6.93;;;;;;;9.68;100.00;95216.72;10495917;28;20027;-73
2020/12/23 15:32:50;;;;;;;20.67;7.63;;;;;;;9.64;100.00;95212.97;10469656;28;20340;-73
2020/12/23 15:37:51;;;;;;;13.77;6.15;;;;;;;9.65;100.00;95219.13;10487276;28;20041;-73
2020/12/23 15:42:51;;;;;;;14.80;5.93;;;;;;;9.63;100.00;95221.25;10486297;28;20024;-73
2020/12/23 15:47:52;;;;;;;20.50;7.75;;;;;;;9.68;100.00;95227.47;10487842;28;20035;-74
2020/12/23 15:52:53;;;;;;;29.58;9.00;;;;;;;9.63;100.00;95218.56;10526944;28;20254;-72
2020/12/23 15:57:53;;;;;;;26.40;7.60;;;;;;;9.52;100.00;95212.31;10528383;28;20040;-72
2020/12/23 16:02:54;;;;;;;27.80;9.23;;;;;;;9.50;100.00;95225.16;10511003;28;20301;-73
2020/12/23 16:07:54;;;;;;;23.73;9.00;;;;;;;9.45;100.00;95219.75;10528471;28;20075;-73
2020/12/23 16:12:54;;;;;;;22.63;10.13;;;;;;;9.37;100.00;95212.97;10528785;28;20043;-73
2020/12/23 16:17:55;;;;;;;20.92;11.25;;;;;;;9.30;100.00;95212.38;10527474;28;20506;-73
2020/12/23 16:22:55;;;;;;;23.73;10.70;;;;;;;9.16;100.00;95206.59;10510773;28;20044;-73
2020/12/23 16:27:56;;;;;;;26.67;11.37;;;;;;;9.07;100.00;95217.75;10510393;28;20182;-73
2020/12/23 16:32:56;;;;;;;23.73;12.60;;;;;;;9.01;100.00;95223.31;10489346;28;20035;-73
2020/12/23 16:37:57;;;;;;;42.85;15.25;;;;;;;9.06;100.00;95218.81;10517252;28;20831;-73
2020/12/23 16:43:01;;;;;;;34.80;13.98;;;;;;;8.93;100.00;95229.94;10523234;28;20024;-73
2020/12/23 16:48:01;;;;;;;44.47;17.08;;;;;;;8.91;100.00;95239.28;10535301;28;20056;-73
2020/12/23 16:53:01;;;;;;;38.50;17.67;;;;;;;8.88;100.00;95243.28;10522191;28;20464;-73
2020/12/23 16:58:02;;;;;;;39.75;17.10;;;;;;;8.88;100.00;95251.31;10516870;28;20040;-73
2020/12/23 17:03:03;;;;;;;38.65;17.67;;;;;;;8.79;100.00;95255.47;10535306;28;20036;-72
2020/12/23 17:08:03;;;;;;;40.30;17.98;;;;;;;8.73;100.00;95251.94;10497409;28;20510;-72
2020/12/23 17:13:04;;;;;;;33.67;16.15;;;;;;;8.65;100.00;95255.03;10493531;28;20040;-73
2020/12/23 17:18:04;;;;;;;42.42;17.08;;;;;;;8.60;100.00;95254.97;10494871;28;20048;-73
2020/12/23 17:23:05;;;;;;;36.30;16.90;;;;;;;8.49;100.00;95252.16;10528146;28;20089;-73
2020/12/23 17:28:06;;;;;;;30.35;13.70;;;;;;;8.41;100.00;95254.41;10511766;28;20151;-73
2020/12/23 17:33:07;;;;;;;25.85;11.63;;;;;;;8.36;100.00;95253.28;10516563;28;20036;-73
2020/12/23 17:38:08;;;;;;;23.67;11.52;;;;;;;8.06;100.00;95247.47;10508438;28;20040;-73
2020/12/23 17:43:08;;;;;;;23.33;11.10;;;;;;;7.87;100.00;95250.41;10508912;28;20117;-72
2020/12/23 17:48:09;;;;;;;26.40;12.38;;;;;;;7.77;100.00;95244.88;10505643;28;20444;-73
2020/12/23 17:53:10;;;;;;;24.97;13.17;;;;;;;7.58;100.00;95241.63;10500392;28;20043;-73
2020/12/23 17:58:11;;;;;;;34.28;15.27;;;;;;;7.57;100.00;95240.81;10514881;28;20297;-73
2020/12/23 18:03:12;;;;;;;38.05;16.65;;;;;;;7.52;100.00;95246.06;10531783;28;20460;-73
2020/12/23 18:08:12;;;;;;;25.02;12.68;;;;;;;7.42;100.00;95236.00;10532274;28;20089;-73
2020/12/23 18:13:13;;;;;;;28.35;12.30;;;;;;;7.45;100.00;95242.72;10514863;28;20135;-73
2020/12/23 18:18:13;;;;;;;23.45;11.25;;;;;;;7.43;100.00;95240.28;10532337;28;20055;-73
2020/12/23 18:23:14;;;;;;;23.43;11.20;;;;;;;7.44;100.00;95230.44;10530743;28;20469;-73
2020/12/23 18:28:14;;;;;;;28.92;12.60;;;;;;;7.33;100.00;95237.47;10532273;28;20335;-74
2020/12/23 18:33:15;;;;;;;15.85;7.97;;;;;;;7.17;100.00;95223.81;10531376;28;20032;-73
2020/12/23 18:38:16;;;;;;;19.55;10.65;;;;;;;6.84;100.00;95232.53;10530987;28;20497;-73
2020/12/23 18:43:18;;;;;;;21.75;11.05;;;;;;;6.99;100.00;95223.97;10513061;28;20391;-74
2020/12/23 18:48:18;;;;;;;24.05;12.10;;;;;;;7.06;100.00;95219.31;10530870;28;20024;-74
2020/12/23 18:53:19;;;;;;;37.17;15.52;;;;;;;7.08;100.00;95227.09;10530370;28;20044;-74
2020/12/23 18:58:19;;;;;;;40.05;17.38;;;;;;;7.04;100.00;95225.97;10530454;28;20094;-73
2020/12/23 19:03:20;;;;;;;26.65;11.52;;;;;;;7.07;100.00;95212.13;10529886;28;20039;-73
2020/12/23 19:08:20;;;;;;;20.67;9.57;;;;;;;6.88;100.00;95217.66;10529669;28;20160;-73
2020/12/23 19:13:21;;;;;;;20.92;8.95;;;;;;;6.91;100.00;95217.16;10530092;28;20039;-72
2020/12/23 19:18:21;;;;;;;16.45;7.68;;;;;;;6.88;100.00;95201.63;10494606;28;20071;-72
2020/12/23 19:23:22;;;;;;;18.40;9.75;;;;;;;6.83;100.00;95212.19;10472994;28;20080;-73
2020/12/23 19:28:23;;;;;;;31.08;10.13;;;;;;;6.89;100.00;95195.22;10458814;28;20111;-73
2020/12/23 19:33:24;;;;;;;15.45;8.57;;;;;;;6.89;100.00;95192.53;10478922;28;20797;-72
2020/12/23 19:38:24;;;;;;;23.50;11.43;;;;;;;6.84;100.00;95190.59;10445418;28;20029;-73
2020/12/23 19:43:25;;;;;;;26.70;12.98;;;;;;;6.65;100.00;95192.63;10463691;28;20500;-72
2020/12/23 19:48:25;;;;;;;31.45;17.35;;;;;;;6.53;100.00;95201.72;10484412;28;20031;-72
2020/12/23 19:53:26;;;;;;;51.03;19.85;;;;;;;6.05;100.00;95203.63;10484594;28;20126;-72
2020/12/23 19:58:26;;;;;;;43.50;19.67;;;;;;;5.86;100.00;95202.91;10484035;28;20032;-72
2020/12/23 20:03:27;;;;;;;36.83;19.23;;;;;;;5.68;100.00;95203.81;10482354;28;20024;-72
2020/12/23 20:08:27;;;;;;;35.58;19.10;;;;;;;5.48;100.00;95207.63;10482780;28;20028;-71
2020/12/23 20:13:28;;;;;;;33.42;14.85;;;;;;;5.47;100.00;95201.47;10488753;28;20434;-72
2020/12/23 20:18:28;;;;;;;32.33;16.45;;;;;;;5.51;100.00;95206.34;10507142;28;20044;-72
2020/12/23 20:23:29;;;;;;;34.00;14.43;;;;;;;5.48;100.00;95194.28;10533720;28;20056;-71
2020/12/23 20:28:29;;;;;;;34.45;15.70;;;;;;;5.41;100.00;95197.06;10537054;28;20032;-71
2020/12/23 20:33:30;;;;;;;32.05;17.13;;;;;;;5.13;100.00;95189.69;10506700;28;20029;-72
2020/12/23 20:38:30;;;;;;;34.08;16.15;;;;;;;5.24;100.00;95198.78;10452861;28;20429;-72
2020/12/23 20:43:31;;;;;;;34.47;14.90;;;;;;;5.22;100.00;95199.00;10463293;28;20035;-72
2020/12/23 20:48:31;;;;;;;30.15;15.80;;;;;;;5.08;100.00;95198.38;10504870;28;20044;-72
2020/12/23 20:53:32;;;;;;;32.87;13.23;;;;;;;5.01;100.00;95208.31;10462480;28;20033;-72
2020/12/23 20:58:33;;;;;;;28.75;13.20;;;;;;;5.00;100.00;95203.22;10474161;28;20310;-72
2020/12/23 21:03:34;;;;;;;33.85;14.90;;;;;;;4.93;100.00;95204.09;10471315;28;20086;-72
2020/12/23 21:08:36;;;;;;;38.92;15.23;;;;;;;4.92;100.00;95201.69;10451594;28;20082;-72
2020/12/23 21:13:36;;;;;;;35.67;15.98;;;;;;;4.86;100.00;95203.38;10450656;28;20032;-72
2020/12/23 21:18:37;;;;;;;39.30;15.90;;;;;;;4.75;100.00;95202.28;10490995;28;20055;-72
2020/12/23 21:23:38;;;;;;;38.10;16.98;;;;;;;4.85;100.00;95211.59;10513787;28;20028;-71
2020/12/23 21:28:39;;;;;;;41.78;19.27;;;;;;;4.74;100.00;95208.66;10494709;28;20037;-71
2020/12/23 21:33:39;;;;;;;42.45;19.40;;;;;;;4.54;100.00;95221.41;10491958;28;20032;-72
2020/12/23 21:38:40;;;;;;;37.30;18.48;;;;;;;4.47;100.00;95229.47;10512007;28;20132;-73
2020/12/23 21:43:40;;;;;;;50.60;20.45;;;;;;;4.38;100.00;95214.81;10533134;28;20032;-73
2020/12/23 21:48:42;;;;;;;41.07;21.53;;;;;;;4.31;100.00;95206.91;10532946;28;20028;-72
2020/12/23 21:53:42;;;;;;;39.35;21.17;;;;;;;4.17;100.00;95205.44;10533063;28;20325;-71
2020/12/23 21:58:43;;;;;;;47.83;25.58;;;;;;;4.02;100.00;95205.78;10513914;28;20155;-73
2020/12/23 22:03:43;;;;;;;36.85;21.60;;;;;;;4.04;100.00;95196.56;10532296;28;20564;-72
2020/12/23 22:08:44;;;;;;;48.88;23.23;;;;;;;3.96;100.00;95193.38;10513658;28;20415;-72
2020/12/23 22:13:44;;;;;;;39.28;20.00;;;;;;;4.15;100.00;95195.03;10531579;28;20127;-72
2020/12/23 22:18:45;;;;;;;36.83;20.05;;;;;;;4.31;100.00;95188.28;10531366;28;20040;-72
2020/12/23 22:23:45;;;;;;;41.08;21.45;;;;;;;4.32;100.00;95189.91;10531638;28;20523;-72
2020/12/23 22:28:51;;;;;;;44.03;21.10;;;;;;;4.35;100.00;95180.69;10531738;28;20028;-73
2020/12/23 22:33:52;;;;;;;43.47;21.73;;;;;;;4.39;100.00;95176.53;10530168;28;20047;-71
2020/12/23 22:38:53;;;;;;;49.97;23.90;;;;;;;4.37;100.00;95178.63;10531026;28;20032;-72
2020/12/23 22:43:53;;;;;;;39.73;20.77;;;;;;;4.45;100.00;95179.13;10530563;28;20040;-72
2020/12/23 22:48:54;;;;;;;46.80;22.00;;;;;;;4.49;100.00;95160.84;10530404;28;20282;-72
2020/12/23 22:53:54;;;;;;;40.17;20.10;;;;;;;4.51;100.00;95156.13;10530691;28;20642;-72